createdAt,value
2022-08-25T00:00:11.511Z,22.38
2022-08-25T00:02:38.170Z,22.38
2022-08-25T00:05:05.488Z,22.38
2022-08-25T00:07:33.379Z,22.37
2022-08-25T00:10:00.380Z,22.37
2022-08-25T00:12:27.019Z,22.35
2022-08-25T00:14:53.650Z,22.32
2022-08-25T00:17:20.244Z,22.30
2022-08-25T00:19:46.865Z,22.29
2022-08-25T00:22:13.502Z,22.31
2022-08-25T00:24:40.166Z,22.34
2022-08-25T00:27:06.891Z,22.34
2022-08-25T00:29:34.286Z,22.36
2022-08-25T00:32:01.125Z,22.33
2022-08-25T00:34:36.997Z,22.30
2022-08-25T00:37:07.198Z,22.29
2022-08-25T00:39:33.902Z,22.30
2022-08-25T00:42:00.503Z,22.30
2022-08-25T00:44:29.678Z,22.29
2022-08-25T00:46:58.632Z,22.31
2022-08-25T00:49:36.512Z,22.28
2022-08-25T00:52:05.368Z,22.28
2022-08-25T00:54:39.392Z,22.28
2022-08-25T00:57:07.430Z,22.28
2022-08-25T00:59:34.791Z,22.29
2022-08-25T01:02:02.567Z,22.28
2022-08-25T01:04:29.434Z,22.29
2022-08-25T01:06:57.144Z,22.28
2022-08-25T01:09:23.801Z,22.26
2022-08-25T01:11:50.439Z,22.27
2022-08-25T01:14:19.591Z,22.26
2022-08-25T01:16:46.372Z,22.27
2022-08-25T01:19:17.653Z,22.27
2022-08-25T01:21:50.372Z,22.24
2022-08-25T01:24:29.736Z,22.23
2022-08-25T01:26:56.338Z,22.22
2022-08-25T01:29:25.280Z,22.24
2022-08-25T01:31:58.016Z,22.23
2022-08-25T01:34:27.203Z,22.24
2022-08-25T01:36:54.838Z,22.24
2022-08-25T01:39:22.449Z,22.22
2022-08-25T01:41:51.401Z,22.22
2022-08-25T01:44:19.281Z,22.23
2022-08-25T01:46:46.009Z,22.25
2022-08-25T01:49:12.652Z,22.25
2022-08-25T01:51:52.913Z,22.22
2022-08-25T01:54:19.881Z,22.22
2022-08-25T01:56:46.522Z,22.21
2022-08-25T01:59:24.082Z,22.19
2022-08-25T02:01:57.440Z,22.18
2022-08-25T02:04:32.100Z,22.16
2022-08-25T02:07:00.079Z,22.16
2022-08-25T02:09:26.825Z,22.16
2022-08-25T02:11:53.466Z,22.15
2022-08-25T02:14:20.116Z,22.14
2022-08-25T02:16:49.094Z,22.15
2022-08-25T02:19:16.255Z,22.14
2022-08-25T02:21:43.310Z,22.16
2022-08-25T02:24:11.999Z,22.17
2022-08-25T02:26:38.929Z,22.18
2022-08-25T02:29:07.510Z,22.14
2022-08-25T02:31:35.081Z,22.13
2022-08-25T02:34:02.388Z,22.10
2022-08-25T02:36:29.975Z,22.13
2022-08-25T02:38:56.690Z,22.11
2022-08-25T02:41:31.000Z,22.13
2022-08-25T02:43:59.493Z,22.13
2022-08-25T02:46:26.392Z,22.13
2022-08-25T02:48:53.436Z,22.12
2022-08-25T02:51:22.133Z,22.12
2022-08-25T02:53:49.251Z,22.12
2022-08-25T02:56:18.233Z,22.12
2022-08-25T02:58:46.025Z,22.10
2022-08-25T03:01:14.242Z,22.10
2022-08-25T03:03:42.253Z,22.12
2022-08-25T03:06:12.597Z,22.08
2022-08-25T03:08:39.643Z,22.09
2022-08-25T03:11:06.608Z,22.08
2022-08-25T03:13:33.276Z,22.07
2022-08-25T03:16:00.971Z,22.08
2022-08-25T03:18:30.254Z,22.09
2022-08-25T03:20:57.694Z,22.08
2022-08-25T03:23:24.558Z,22.04
2022-08-25T03:26:09.537Z,22.03
2022-08-25T03:28:36.488Z,21.99
2022-08-25T03:31:03.508Z,22.03
2022-08-25T03:33:30.792Z,22.04
2022-08-25T03:35:58.086Z,22.06
2022-08-25T03:38:26.205Z,22.04
2022-08-25T03:40:53.221Z,22.03
2022-08-25T03:43:20.378Z,22.02
2022-08-25T03:45:47.895Z,22.01
2022-08-25T03:48:15.490Z,22.00
2022-08-25T03:50:51.422Z,21.99
2022-08-25T03:53:20.270Z,22.01
2022-08-25T03:55:47.499Z,21.99
2022-08-25T03:58:14.305Z,21.98
2022-08-25T04:00:41.059Z,21.97
2022-08-25T04:03:07.954Z,21.99
2022-08-25T04:05:35.325Z,22.01
2022-08-25T04:08:02.185Z,22.00
2022-08-25T04:10:29.708Z,22.00
2022-08-25T04:12:57.130Z,21.95
2022-08-25T04:15:28.508Z,21.89
2022-08-25T04:17:59.023Z,21.89
2022-08-25T04:20:25.953Z,21.91
2022-08-25T04:22:52.596Z,21.92
2022-08-25T04:25:19.246Z,21.94
2022-08-25T04:27:45.844Z,21.95
2022-08-25T04:30:13.174Z,21.97
2022-08-25T04:32:39.776Z,21.96
2022-08-25T04:35:07.578Z,21.98
2022-08-25T04:37:34.774Z,21.99
2022-08-25T04:40:01.645Z,21.98
2022-08-25T04:42:28.539Z,22.00
2022-08-25T04:44:55.248Z,22.00
2022-08-25T04:47:22.300Z,22.01
2022-08-25T04:49:49.007Z,21.99
2022-08-25T04:52:15.859Z,21.99
2022-08-25T04:54:43.077Z,21.97
2022-08-25T04:57:09.971Z,21.98
2022-08-25T04:59:36.808Z,21.96
2022-08-25T05:02:05.240Z,21.97
2022-08-25T05:04:33.177Z,21.96
2022-08-25T05:07:00.341Z,21.96
2022-08-25T05:09:27.123Z,21.97
2022-08-25T05:11:54.950Z,21.95
2022-08-25T05:14:25.603Z,21.94
2022-08-25T05:16:56.296Z,21.92
2022-08-25T05:19:24.240Z,21.91
2022-08-25T05:21:51.808Z,21.90
2022-08-25T05:24:18.666Z,21.89
2022-08-25T05:26:45.290Z,21.87
2022-08-25T05:29:11.998Z,21.88
2022-08-25T05:31:43.172Z,21.88
2022-08-25T05:34:12.249Z,21.88
2022-08-25T05:36:43.277Z,21.87
2022-08-25T05:39:10.829Z,21.87
2022-08-25T05:41:39.865Z,21.85
2022-08-25T05:44:06.505Z,21.87
2022-08-25T05:46:33.145Z,21.84
2022-08-25T05:49:00.093Z,21.82
2022-08-25T05:51:26.955Z,21.83
2022-08-25T05:53:53.962Z,21.83
2022-08-25T05:56:20.629Z,21.82
2022-08-25T05:58:47.829Z,21.83
2022-08-25T06:01:43.511Z,21.84
2022-08-25T06:04:12.796Z,21.82
2022-08-25T06:06:40.000Z,21.85
2022-08-25T06:09:08.735Z,21.84
2022-08-25T06:11:37.028Z,21.85
2022-08-25T06:14:04.759Z,21.86
2022-08-25T06:16:31.603Z,21.87
2022-08-25T06:18:58.320Z,21.85
2022-08-25T06:21:25.460Z,21.82
2022-08-25T06:23:52.838Z,21.84
2022-08-25T06:26:20.897Z,21.84
2022-08-25T06:28:52.017Z,21.82
2022-08-25T06:31:19.863Z,21.80
2022-08-25T06:33:46.755Z,21.80
2022-08-25T06:36:13.521Z,21.82
2022-08-25T06:38:40.256Z,21.83
2022-08-25T06:41:07.988Z,21.80
2022-08-25T06:43:34.915Z,21.82
2022-08-25T06:46:09.627Z,21.82
2022-08-25T06:48:37.370Z,21.83
2022-08-25T06:51:13.996Z,21.84
2022-08-25T06:53:42.353Z,21.83
2022-08-25T06:56:09.622Z,21.82
2022-08-25T06:58:36.308Z,21.84
2022-08-25T07:01:22.288Z,21.84
2022-08-25T07:03:50.314Z,21.84
2022-08-25T07:06:19.802Z,21.87
2022-08-25T07:08:48.017Z,21.85
2022-08-25T07:11:16.685Z,21.83
2022-08-25T07:13:44.790Z,21.84
2022-08-25T07:16:11.592Z,21.84
2022-08-25T07:18:38.507Z,21.83
2022-08-25T07:21:05.411Z,21.83
2022-08-25T07:23:36.075Z,21.83
2022-08-25T07:26:38.814Z,21.85
2022-08-25T07:29:14.940Z,21.86
2022-08-25T07:31:41.818Z,21.86
2022-08-25T07:34:27.622Z,21.90
2022-08-25T07:36:55.689Z,21.90
2022-08-25T07:39:22.757Z,21.88
2022-08-25T07:44:36.093Z,21.89
2022-08-25T07:47:04.894Z,21.91
2022-08-25T07:49:36.012Z,21.91
2022-08-25T07:52:06.994Z,21.90
2022-08-25T07:54:38.069Z,21.91
2022-08-25T07:57:08.860Z,21.90
2022-08-25T07:59:40.242Z,21.90
2022-08-25T08:02:18.081Z,21.89
2022-08-25T08:04:51.949Z,21.88
2022-08-25T08:07:25.793Z,21.91
2022-08-25T08:10:42.177Z,21.91
2022-08-25T08:12:58.466Z,21.92
2022-08-25T08:15:25.221Z,21.92
2022-08-25T08:17:56.356Z,21.93
2022-08-25T08:20:25.189Z,21.93
2022-08-25T08:22:52.195Z,21.94
2022-08-25T08:25:21.579Z,21.94
2022-08-25T08:27:54.997Z,21.95
2022-08-25T08:30:22.293Z,21.93
2022-08-25T08:33:09.245Z,21.96
2022-08-25T08:35:37.136Z,21.95
2022-08-25T08:38:05.451Z,21.96
2022-08-25T08:41:23.186Z,21.97
2022-08-25T08:43:56.696Z,21.96
2022-08-25T08:46:25.977Z,21.97
2022-08-25T08:49:01.488Z,21.97
2022-08-25T08:51:32.670Z,21.98
2022-08-25T08:54:15.149Z,21.99
2022-08-25T08:56:47.977Z,22.02
2022-08-25T08:59:28.863Z,22.05
2022-08-25T09:02:00.407Z,22.07
2022-08-25T09:04:58.794Z,22.07
2022-08-25T09:07:47.280Z,22.07
2022-08-25T09:10:18.184Z,22.07
2022-08-25T09:12:55.466Z,22.07
2022-08-25T09:15:59.324Z,22.07
2022-08-25T09:18:51.017Z,22.08
2022-08-25T09:21:31.342Z,22.07
2022-08-25T09:24:22.793Z,22.08
2022-08-25T09:27:19.261Z,22.07
2022-08-25T09:30:10.063Z,22.10
2022-08-25T09:32:48.994Z,22.10
2022-08-25T09:35:32.098Z,22.12
2022-08-25T09:38:07.905Z,22.12
2022-08-25T09:40:40.258Z,22.15
2022-08-25T09:43:28.937Z,22.16
2022-08-25T09:46:20.494Z,22.15
2022-08-25T09:48:56.441Z,22.16
2022-08-25T09:51:42.341Z,22.18
2022-08-25T09:54:12.708Z,22.20
2022-08-25T09:57:01.931Z,22.26
2022-08-25T09:59:34.834Z,22.24
2022-08-25T10:02:21.016Z,22.25
2022-08-25T10:04:47.769Z,22.28
2022-08-25T10:07:35.716Z,22.32
2022-08-25T10:10:07.641Z,22.36
2022-08-25T10:12:42.612Z,22.43
2022-08-25T10:15:34.232Z,22.42
2022-08-25T10:18:21.251Z,22.44
2022-08-25T10:21:07.837Z,22.48
2022-08-25T10:23:36.981Z,22.53
2022-08-25T10:26:10.691Z,22.56
2022-08-25T10:28:50.738Z,22.62
2022-08-25T10:31:34.947Z,22.64
2022-08-25T10:34:15.639Z,22.68
2022-08-25T10:37:32.689Z,22.65
2022-08-25T10:40:32.500Z,22.67
2022-08-25T10:43:07.580Z,22.67
2022-08-25T10:46:15.009Z,22.70
2022-08-25T10:48:52.630Z,22.74
2022-08-25T10:51:43.808Z,22.77
2022-08-25T10:54:19.362Z,22.80
2022-08-25T10:57:39.630Z,22.83
2022-08-25T11:00:13.414Z,22.85
2022-08-25T11:03:21.315Z,22.87
2022-08-25T11:06:00.108Z,22.90
2022-08-25T11:08:36.877Z,22.93
2022-08-25T11:11:06.134Z,22.95
2022-08-25T11:13:47.907Z,22.95
2022-08-25T11:16:19.914Z,22.97
2022-08-25T11:18:52.116Z,22.99
2022-08-25T11:21:24.159Z,23.01
2022-08-25T11:23:59.930Z,23.00
2022-08-25T11:26:36.629Z,23.03
2022-08-25T11:29:12.905Z,23.06
2022-08-25T11:31:53.588Z,23.11
2022-08-25T11:34:21.613Z,23.13
2022-08-25T11:36:57.631Z,23.15
2022-08-25T11:40:05.014Z,23.16
2022-08-25T11:42:43.264Z,23.17
2022-08-25T11:45:16.239Z,23.17
2022-08-25T11:48:27.671Z,23.16
2022-08-25T11:50:58.320Z,23.16
2022-08-25T11:53:28.962Z,23.15
2022-08-25T11:56:05.567Z,23.11
2022-08-25T11:58:32.229Z,23.10
2022-08-25T12:01:03.984Z,23.06
2022-08-25T12:03:36.636Z,23.07
2022-08-25T12:06:23.383Z,23.07
2022-08-25T12:09:00.648Z,23.08
2022-08-25T12:11:42.275Z,23.07
2022-08-25T12:14:28.371Z,23.09
2022-08-25T12:16:55.227Z,23.08
2022-08-25T12:19:28.726Z,23.11
2022-08-25T12:22:03.493Z,23.12
2022-08-25T12:24:47.850Z,23.17
2022-08-25T12:27:39.422Z,23.20
2022-08-25T12:30:16.067Z,23.25
2022-08-25T12:33:11.989Z,23.31
2022-08-25T12:35:59.190Z,23.39
2022-08-25T12:38:50.839Z,23.45
2022-08-25T12:41:24.593Z,23.48
2022-08-25T12:43:53.237Z,23.51
2022-08-25T12:46:19.861Z,23.54
2022-08-25T12:48:57.267Z,23.57
2022-08-25T12:51:48.525Z,23.61
2022-08-25T12:54:19.092Z,23.64
2022-08-25T12:56:57.800Z,23.64
2022-08-25T12:59:38.305Z,23.65
2022-08-25T13:02:16.873Z,23.67
2022-08-25T13:04:46.758Z,23.69
2022-08-25T13:07:36.263Z,23.71
2022-08-25T13:10:09.052Z,23.72
2022-08-25T13:13:05.189Z,23.73
2022-08-25T13:15:37.329Z,23.76
2022-08-25T13:18:29.725Z,23.78
2022-08-25T13:21:19.287Z,23.78
2022-08-25T13:23:49.921Z,23.80
2022-08-25T13:26:48.006Z,23.79
2022-08-25T13:29:20.189Z,23.82
2022-08-25T13:31:51.621Z,23.86
2022-08-25T13:34:23.093Z,23.86
2022-08-25T13:37:29.773Z,23.86
2022-08-25T13:40:29.513Z,23.94
2022-08-25T13:43:10.601Z,23.97
2022-08-25T13:45:46.181Z,23.99
2022-08-25T13:48:21.034Z,23.99
2022-08-25T13:50:52.128Z,24.00
2022-08-25T13:53:25.359Z,23.98
2022-08-25T13:55:56.975Z,23.87
2022-08-25T13:58:45.192Z,23.94
2022-08-25T14:01:23.624Z,24.02
2022-08-25T14:04:51.503Z,24.07
2022-08-25T14:07:19.424Z,24.03
2022-08-25T14:09:52.125Z,24.08
2022-08-25T14:12:44.790Z,24.07
2022-08-25T14:15:17.782Z,24.12
2022-08-25T14:20:23.779Z,24.10
2022-08-25T14:22:55.853Z,24.12
2022-08-25T14:25:26.730Z,24.17
2022-08-25T14:28:06.709Z,23.98
2022-08-25T14:30:36.209Z,24.04
2022-08-25T14:33:04.008Z,24.21
2022-08-25T14:35:31.389Z,24.27
2022-08-25T14:37:58.274Z,24.40
2022-08-25T14:40:24.915Z,24.40
2022-08-25T14:45:18.823Z,24.37
2022-08-25T14:47:49.827Z,24.37
2022-08-25T14:50:20.132Z,24.37
2022-08-25T14:52:48.295Z,24.37
2022-08-25T14:55:31.590Z,24.38
2022-08-25T14:57:59.572Z,24.35
2022-08-25T15:00:26.884Z,24.31
2022-08-25T15:02:54.883Z,24.29
2022-08-25T15:05:24.732Z,24.30
2022-08-25T15:08:12.218Z,24.34
2022-08-25T15:10:39.930Z,24.33
2022-08-25T15:13:07.177Z,24.36
2022-08-25T15:15:38.334Z,24.36
2022-08-25T15:18:05.657Z,24.33
2022-08-25T15:20:32.942Z,24.32
2022-08-25T15:22:59.834Z,24.32
2022-08-25T15:25:26.877Z,24.31
2022-08-25T15:27:54.342Z,24.27
2022-08-25T15:30:21.545Z,24.21
2022-08-25T15:32:57.759Z,24.15
2022-08-25T15:35:29.046Z,24.10
2022-08-25T15:37:55.934Z,24.06
2022-08-25T15:40:23.151Z,24.05
2022-08-25T15:42:49.814Z,24.01
2022-08-25T15:45:16.660Z,24.00
2022-08-25T15:47:44.839Z,23.97
2022-08-25T15:50:17.703Z,23.95
2022-08-25T15:52:46.152Z,23.95
2022-08-25T15:55:13.766Z,23.94
2022-08-25T15:57:40.391Z,23.91
2022-08-25T16:00:13.664Z,23.89
2022-08-25T16:02:43.554Z,23.89
2022-08-25T16:05:12.377Z,23.89
2022-08-25T16:07:40.493Z,23.89
2022-08-25T16:10:07.726Z,23.88
2022-08-25T16:12:34.530Z,23.87
2022-08-25T16:15:01.783Z,23.86
2022-08-25T16:17:28.397Z,23.85
2022-08-25T16:19:55.016Z,23.84
2022-08-25T16:22:21.630Z,23.83
2022-08-25T16:24:49.145Z,23.80
2022-08-25T16:27:16.251Z,23.79
2022-08-25T16:29:44.124Z,23.80
2022-08-25T16:32:13.421Z,23.79
2022-08-25T16:34:41.456Z,23.77
2022-08-25T16:37:08.665Z,23.76
2022-08-25T16:39:35.950Z,23.74
2022-08-25T16:42:06.580Z,23.72
2022-08-25T16:44:34.371Z,23.71
2022-08-25T16:47:01.514Z,23.70
2022-08-25T16:49:28.269Z,23.69
2022-08-25T16:51:57.693Z,23.66
2022-08-25T16:55:00.845Z,23.67
2022-08-25T16:57:27.458Z,23.65
2022-08-25T16:59:54.055Z,23.65
2022-08-25T17:02:21.666Z,23.65
2022-08-25T17:04:48.438Z,23.64
2022-08-25T17:07:15.708Z,23.64
2022-08-25T17:09:50.451Z,23.62
2022-08-25T17:12:17.660Z,23.60
2022-08-25T17:14:44.237Z,23.60
2022-08-25T17:17:11.264Z,23.59
2022-08-25T17:19:38.030Z,23.60
2022-08-25T17:22:07.096Z,23.59
2022-08-25T17:24:34.334Z,23.61
2022-08-25T17:27:02.066Z,23.58
2022-08-25T17:29:29.021Z,23.59
2022-08-25T17:31:55.605Z,23.59
2022-08-25T17:34:23.159Z,23.57
2022-08-25T17:36:50.608Z,23.57
2022-08-25T17:39:18.463Z,23.57
2022-08-25T17:41:45.384Z,23.56
2022-08-25T17:44:13.089Z,23.55
2022-08-25T17:46:46.980Z,23.56
2022-08-25T17:49:14.976Z,23.55
2022-08-25T17:51:42.395Z,23.55
2022-08-25T17:54:09.097Z,23.51
2022-08-25T17:56:35.834Z,23.52
2022-08-25T17:59:02.464Z,23.51
2022-08-25T18:01:32.218Z,23.52
2022-08-25T18:04:00.123Z,23.52
2022-08-25T18:06:31.554Z,23.52
2022-08-25T18:08:59.958Z,23.51
2022-08-25T18:11:27.604Z,23.52
2022-08-25T18:13:55.297Z,23.52
2022-08-25T18:16:23.221Z,23.53
2022-08-25T18:18:50.199Z,23.53
2022-08-25T18:21:20.457Z,23.54
2022-08-25T18:23:47.822Z,23.54
2022-08-25T18:26:15.533Z,23.51
2022-08-25T18:28:43.941Z,23.51
2022-08-25T18:31:12.255Z,23.51
2022-08-25T18:33:42.138Z,23.51
2022-08-25T18:36:09.730Z,23.51
2022-08-25T18:38:58.134Z,23.48
2022-08-25T18:41:25.646Z,23.50
2022-08-25T18:43:53.062Z,23.49
2022-08-25T18:46:19.841Z,23.50
2022-08-25T18:48:52.644Z,23.48
2022-08-25T18:51:22.985Z,23.47
2022-08-25T18:53:51.178Z,23.45
2022-08-25T18:56:18.775Z,23.45
2022-08-25T18:58:46.770Z,23.45
2022-08-25T19:01:15.497Z,23.44
2022-08-25T19:03:43.117Z,23.44
2022-08-25T19:06:10.049Z,23.41
2022-08-25T19:08:39.497Z,23.40
2022-08-25T19:11:09.790Z,23.37
2022-08-25T19:13:36.925Z,23.40
2022-08-25T19:16:13.805Z,23.37
2022-08-25T19:18:44.517Z,23.35
2022-08-25T19:21:11.658Z,23.35
2022-08-25T19:23:39.046Z,23.35
2022-08-25T19:26:08.118Z,23.32
2022-08-25T19:28:41.046Z,23.29
2022-08-25T19:31:12.710Z,23.26
2022-08-25T19:33:44.982Z,23.27
2022-08-25T19:36:12.553Z,23.26
2022-08-25T19:38:39.426Z,23.24
2022-08-25T19:41:10.582Z,23.25
2022-08-25T19:43:55.371Z,23.24
2022-08-25T19:46:23.285Z,23.21
2022-08-25T19:48:50.461Z,23.20
2022-08-25T19:51:19.163Z,23.19
2022-08-25T19:53:54.035Z,23.18
2022-08-25T19:56:21.053Z,23.16
2022-08-25T19:58:47.877Z,23.16
2022-08-25T20:01:18.068Z,23.12
2022-08-25T20:03:45.116Z,23.05
2022-08-25T20:06:11.925Z,23.06
2022-08-25T20:08:42.889Z,23.11
2022-08-25T20:11:09.583Z,23.13
2022-08-25T20:13:36.213Z,23.13
2022-08-25T20:16:03.833Z,23.15
2022-08-25T20:18:32.644Z,23.15
2022-08-25T20:21:00.473Z,23.15
2022-08-25T20:23:46.023Z,23.15
2022-08-25T20:26:12.694Z,23.16
2022-08-25T20:28:42.113Z,23.15
2022-08-25T20:31:09.175Z,23.17
2022-08-25T20:33:36.105Z,23.15
2022-08-25T20:36:04.810Z,23.13
2022-08-25T20:38:32.083Z,23.12
2022-08-25T20:41:00.733Z,23.11
2022-08-25T20:43:29.587Z,23.11
2022-08-25T20:46:00.730Z,23.08
2022-08-25T20:48:27.948Z,23.04
2022-08-25T20:50:58.001Z,23.05
2022-08-25T20:53:25.683Z,23.03
2022-08-25T20:55:52.350Z,23.01
2022-08-25T20:58:18.974Z,23.00
2022-08-25T21:00:46.026Z,23.02
2022-08-25T21:03:12.705Z,23.02
2022-08-25T21:05:40.929Z,23.01
2022-08-25T21:08:08.356Z,22.98
2022-08-25T21:10:35.187Z,22.99
2022-08-25T21:13:01.816Z,23.01
2022-08-25T21:15:28.604Z,22.98
2022-08-25T21:17:55.867Z,23.00
2022-08-25T21:20:26.421Z,23.00
2022-08-25T21:22:53.430Z,23.02
2022-08-25T21:25:20.606Z,23.02
2022-08-25T21:27:48.097Z,22.99
2022-08-25T21:30:16.030Z,22.97
2022-08-25T21:32:53.201Z,22.91
2022-08-25T21:35:22.422Z,22.89
2022-08-25T21:37:53.075Z,22.88
2022-08-25T21:40:22.034Z,22.87
2022-08-25T21:42:49.038Z,22.85
2022-08-25T21:45:15.796Z,22.90
2022-08-25T21:47:42.724Z,22.94
2022-08-25T21:50:12.996Z,22.98
2022-08-25T21:52:39.594Z,22.99
2022-08-25T21:55:15.767Z,23.02
2022-08-25T21:57:43.197Z,23.03
2022-08-25T22:00:14.497Z,23.01
2022-08-25T22:02:43.929Z,23.03
2022-08-25T22:05:11.614Z,23.01
2022-08-25T22:07:42.089Z,23.01
2022-08-25T22:10:15.907Z,23.02
2022-08-25T22:12:47.457Z,23.02
2022-08-25T22:15:15.636Z,23.02
2022-08-25T22:17:42.350Z,23.02
2022-08-25T22:20:09.822Z,23.03
2022-08-25T22:22:36.440Z,23.01
2022-08-25T22:25:03.676Z,22.99
2022-08-25T22:27:31.697Z,22.97
2022-08-25T22:29:58.709Z,22.95
2022-08-25T22:32:25.592Z,22.94
2022-08-25T22:34:52.707Z,22.93
2022-08-25T22:37:19.539Z,22.95
2022-08-25T22:39:46.646Z,22.94
2022-08-25T22:42:13.987Z,22.90
2022-08-25T22:44:42.423Z,22.85
2022-08-25T22:47:09.618Z,22.86
2022-08-25T22:49:39.346Z,22.87
2022-08-25T22:52:07.155Z,22.87
2022-08-25T22:54:36.814Z,22.90
2022-08-25T22:57:06.655Z,22.90
2022-08-25T22:59:34.003Z,22.85
2022-08-25T23:02:00.740Z,22.83
2022-08-25T23:04:27.447Z,22.84
2022-08-25T23:06:54.216Z,22.90
2022-08-25T23:09:21.494Z,22.91
2022-08-25T23:11:48.933Z,22.93
2022-08-25T23:14:18.506Z,22.90
2022-08-25T23:16:45.293Z,22.89
2022-08-25T23:19:13.716Z,22.89
2022-08-25T23:22:00.620Z,22.86
2022-08-25T23:24:30.326Z,22.84
2022-08-25T23:26:59.130Z,22.84
2022-08-25T23:29:25.872Z,22.81
2022-08-25T23:31:53.728Z,22.83
2022-08-25T23:34:23.016Z,22.81
2022-08-25T23:36:49.699Z,22.76
2022-08-25T23:39:16.536Z,22.77
2022-08-25T23:41:43.358Z,22.76
2022-08-25T23:44:11.785Z,22.77
2022-08-25T23:46:44.674Z,22.77
2022-08-25T23:49:11.587Z,22.80
2022-08-25T23:51:38.573Z,22.79
2022-08-25T23:54:09.642Z,22.81
2022-08-25T23:56:42.269Z,22.86
2022-08-25T23:59:13.073Z,22.87
